Time;durP1;ratioP1;P1;durP2;ratioP2;P2;SDS_P1;SDS_P2;PMS_P1;PMS_P2;Temp;Humidity;BMP_temperature;BMP_pressure;BME280_temperature;BME280_humidity;BME280_pressure;Samples;Min_cycle;Max_cycle;Signal;HPM_P1;HPM_P2
2020/11/18 00:01:45;;;;;;;4.93;4.34;;;;;;;20.24;56.36;101586.27;;;;-53
2020/11/18 00:04:45;;;;;;;5.97;4.33;;;;;;;20.23;56.38;101582.48;;;;-50
2020/11/18 00:07:45;;;;;;;5.25;4.21;;;;;;;20.21;56.40;101582.20;;;;-50
2020/11/18 00:10:45;;;;;;;4.79;4.29;;;;;;;20.20;56.39;101580.66;;;;-47
2020/11/18 00:13:45;;;;;;;5.40;4.13;;;;;;;20.18;56.42;101576.62;;;;-47
2020/11/18 00:16:45;;;;;;;4.84;4.33;;;;;;;20.17;56.39;101573.16;;;;-47
2020/11/18 00:19:45;;;;;;;4.60;4.11;;;;;;;20.16;56.47;101572.34;;;;-51
2020/11/18 00:22:45;;;;;;;5.10;4.27;;;;;;;20.15;56.42;101568.64;;;;-53
2020/11/18 00:25:45;;;;;;;4.82;4.30;;;;;;;20.14;56.46;101568.23;;;;-47
2020/11/18 00:28:45;;;;;;;4.79;4.17;;;;;;;20.12;56.46;101572.17;;;;-47
2020/11/18 00:31:45;;;;;;;4.66;4.14;;;;;;;20.11;56.52;101569.56;;;;-47
2020/11/18 00:34:45;;;;;;;4.75;4.16;;;;;;;20.10;56.48;101573.59;;;;-53
2020/11/18 00:37:45;;;;;;;4.89;4.19;;;;;;;20.09;56.46;101570.82;;;;-53
2020/11/18 00:40:45;;;;;;;4.42;4.00;;;;;;;20.07;56.48;101571.67;;;;-54
2020/11/18 00:43:45;;;;;;;4.99;4.23;;;;;;;20.06;56.51;101576.36;;;;-53
2020/11/18 00:46:45;;;;;;;4.67;4.00;;;;;;;20.05;56.48;101578.22;;;;-53
2020/11/18 00:49:45;;;;;;;4.59;4.13;;;;;;;20.03;56.45;101584.44;;;;-53
2020/11/18 00:52:45;;;;;;;4.92;4.24;;;;;;;20.02;56.54;101587.58;;;;-51
2020/11/18 00:55:45;;;;;;;4.56;4.05;;;;;;;20.02;56.50;101592.86;;;;-51
2020/11/18 00:58:45;;;;;;;4.32;3.91;;;;;;;20.00;56.53;101593.31;;;;-51
2020/11/18 01:01:45;;;;;;;4.51;3.87;;;;;;;20.01;56.50;101598.96;;;;-51
2020/11/18 01:04:45;;;;;;;4.52;3.84;;;;;;;19.98;56.50;101595.17;;;;-51
2020/11/18 01:07:45;;;;;;;5.02;4.09;;;;;;;19.96;56.50;101585.09;;;;-51
2020/11/18 01:10:45;;;;;;;4.39;3.99;;;;;;;19.96;56.50;101579.71;;;;-51
2020/11/18 01:13:45;;;;;;;4.59;3.97;;;;;;;19.94;56.53;101574.09;;;;-51
2020/11/18 01:16:45;;;;;;;4.37;3.97;;;;;;;19.93;56.54;101575.43;;;;-51
2020/11/18 01:19:45;;;;;;;4.68;4.11;;;;;;;19.92;56.53;101575.80;;;;-51
2020/11/18 01:22:45;;;;;;;4.35;3.69;;;;;;;19.91;56.52;101574.57;;;;-48
2020/11/18 01:25:45;;;;;;;4.31;3.91;;;;;;;19.91;56.56;101570.98;;;;-48
2020/11/18 01:28:45;;;;;;;4.36;3.91;;;;;;;19.89;56.56;101566.06;;;;-48
2020/11/18 01:31:45;;;;;;;4.41;4.01;;;;;;;19.88;56.59;101560.12;;;;-52
2020/11/18 01:34:45;;;;;;;4.83;4.21;;;;;;;19.88;56.57;101561.22;;;;-52
2020/11/18 01:37:45;;;;;;;5.21;4.13;;;;;;;19.87;56.65;101560.89;;;;-51
2020/11/18 01:40:45;;;;;;;4.41;3.87;;;;;;;19.86;56.57;101550.80;;;;-51
2020/11/18 01:43:45;;;;;;;5.25;3.77;;;;;;;19.85;56.57;101551.08;;;;-51
2020/11/18 01:46:45;;;;;;;4.46;3.99;;;;;;;19.84;56.63;101549.53;;;;-51
2020/11/18 01:49:45;;;;;;;4.19;3.74;;;;;;;19.84;56.65;101555.44;;;;-52
2020/11/18 01:52:45;;;;;;;4.39;3.77;;;;;;;19.83;56.56;101558.11;;;;-52
2020/11/18 01:55:45;;;;;;;4.25;3.84;;;;;;;19.82;56.61;101556.56;;;;-51
2020/11/18 01:58:45;;;;;;;4.14;3.71;;;;;;;19.81;56.65;101553.02;;;;-51
2020/11/18 02:01:45;;;;;;;4.12;3.58;;;;;;;19.80;56.63;101556.77;;;;-51
2020/11/18 02:04:45;;;;;;;4.34;3.93;;;;;;;19.80;56.67;101556.11;;;;-51
2020/11/18 02:07:45;;;;;;;5.60;3.82;;;;;;;19.79;56.63;101559.98;;;;-51
2020/11/18 02:10:45;;;;;;;5.98;3.65;;;;;;;19.78;56.67;101560.05;;;;-51
2020/11/18 02:13:45;;;;;;;3.80;3.38;;;;;;;19.78;56.67;101570.70;;;;-51
2020/11/18 02:16:45;;;;;;;4.49;3.63;;;;;;;19.77;56.67;101569.77;;;;-51
2020/11/18 02:19:45;;;;;;;4.01;3.54;;;;;;;19.76;56.64;101568.05;;;;-51
2020/11/18 02:22:45;;;;;;;4.25;3.85;;;;;;;19.75;56.65;101568.42;;;;-51
2020/11/18 02:25:45;;;;;;;4.61;3.73;;;;;;;19.74;56.67;101565.65;;;;-55
2020/11/18 02:28:45;;;;;;;4.57;3.67;;;;;;;19.74;56.69;101568.82;;;;-55
2020/11/18 02:31:45;;;;;;;4.05;3.60;;;;;;;19.73;56.68;101567.56;;;;-55
2020/11/18 02:34:45;;;;;;;3.85;3.43;;;;;;;19.73;56.62;101566.50;;;;-48
2020/11/18 02:37:45;;;;;;;4.20;3.80;;;;;;;19.71;56.57;101564.91;;;;-51
2020/11/18 02:40:45;;;;;;;4.16;3.76;;;;;;;19.71;56.64;101562.47;;;;-52
2020/11/18 02:43:45;;;;;;;3.91;3.51;;;;;;;19.70;56.60;101560.03;;;;-52
2020/11/18 02:46:45;;;;;;;3.82;3.42;;;;;;;19.70;56.69;101556.98;;;;-52
2020/11/18 02:49:45;;;;;;;3.88;3.41;;;;;;;19.69;56.69;101554.42;;;;-52
2020/11/18 02:52:45;;;;;;;3.77;3.15;;;;;;;19.68;56.64;101552.30;;;;-52
2020/11/18 02:55:45;;;;;;;3.91;3.51;;;;;;;19.68;56.64;101549.62;;;;-51
2020/11/18 02:58:45;;;;;;;4.03;3.58;;;;;;;19.67;56.63;101548.72;;;;-54
2020/11/18 03:01:45;;;;;;;3.94;3.38;;;;;;;19.67;56.66;101547.50;;;;-55
2020/11/18 03:04:45;;;;;;;4.04;3.48;;;;;;;19.66;56.66;101543.31;;;;-48
2020/11/18 03:07:45;;;;;;;3.55;3.25;;;;;;;19.65;56.71;101541.80;;;;-48
2020/11/18 03:10:45;;;;;;;3.90;3.43;;;;;;;19.64;56.69;101543.75;;;;-51
2020/11/18 03:13:45;;;;;;;3.49;3.09;;;;;;;19.63;56.64;101538.78;;;;-51
2020/11/18 03:16:45;;;;;;;3.52;3.18;;;;;;;19.62;56.61;101537.77;;;;-52
2020/11/18 03:19:45;;;;;;;3.49;3.19;;;;;;;19.61;56.69;101533.20;;;;-55
2020/11/18 03:22:45;;;;;;;3.66;3.35;;;;;;;19.61;56.65;101530.08;;;;-55
2020/11/18 03:25:45;;;;;;;3.39;3.09;;;;;;;19.61;56.57;101527.76;;;;-52
2020/11/18 03:28:45;;;;;;;3.31;3.01;;;;;;;19.60;56.66;101526.66;;;;-51
2020/11/18 03:31:45;;;;;;;3.60;3.24;;;;;;;19.59;56.60;101525.19;;;;-51
2020/11/18 03:34:45;;;;;;;3.50;3.20;;;;;;;19.58;56.66;101523.61;;;;-51
2020/11/18 03:37:45;;;;;;;3.80;3.21;;;;;;;19.58;56.73;101528.73;;;;-52
2020/11/18 03:40:45;;;;;;;3.97;3.16;;;;;;;19.57;56.67;101532.22;;;;-48
2020/11/18 03:43:45;;;;;;;3.67;3.31;;;;;;;19.57;56.63;101529.98;;;;-51
2020/11/18 03:46:45;;;;;;;3.71;3.29;;;;;;;19.56;56.68;101528.77;;;;-51
2020/11/18 03:49:45;;;;;;;3.62;3.23;;;;;;;19.55;56.65;101529.09;;;;-49
2020/11/18 03:52:45;;;;;;;3.59;3.25;;;;;;;19.54;56.63;101524.00;;;;-49
2020/11/18 03:55:45;;;;;;;3.56;3.09;;;;;;;19.54;56.60;101522.05;;;;-49
2020/11/18 03:58:45;;;;;;;3.87;3.17;;;;;;;19.54;56.62;101523.68;;;;-50
2020/11/18 04:01:45;;;;;;;3.49;3.19;;;;;;;19.53;56.57;101520.66;;;;-47
2020/11/18 04:04:45;;;;;;;3.40;3.10;;;;;;;19.52;56.62;101517.45;;;;-47
2020/11/18 04:07:45;;;;;;;3.48;3.09;;;;;;;19.52;56.64;101516.06;;;;-47
2020/11/18 04:10:45;;;;;;;3.31;3.01;;;;;;;19.50;56.64;101520.98;;;;-47
2020/11/18 04:13:45;;;;;;;3.45;2.99;;;;;;;19.50;56.71;101520.98;;;;-50
2020/11/18 04:16:45;;;;;;;3.30;3.00;;;;;;;19.49;56.66;101529.52;;;;-50
2020/11/18 04:19:45;;;;;;;3.61;2.99;;;;;;;19.48;56.68;101530.20;;;;-50
2020/11/18 04:22:45;;;;;;;3.25;2.95;;;;;;;19.47;56.69;101534.67;;;;-49
2020/11/18 04:25:45;;;;;;;3.50;2.94;;;;;;;19.47;56.69;101534.73;;;;-51
2020/11/18 04:28:45;;;;;;;3.53;3.09;;;;;;;19.47;56.67;101535.47;;;;-53
2020/11/18 04:31:45;;;;;;;3.17;2.87;;;;;;;19.46;56.67;101535.77;;;;-49
2020/11/18 04:34:45;;;;;;;3.41;3.11;;;;;;;19.45;56.61;101531.37;;;;-50
2020/11/18 04:37:45;;;;;;;3.02;2.72;;;;;;;19.44;56.64;101528.43;;;;-50
2020/11/18 04:40:45;;;;;;;3.13;2.83;;;;;;;19.45;56.65;101528.67;;;;-50
2020/11/18 04:43:45;;;;;;;3.21;2.80;;;;;;;19.44;56.73;101529.45;;;;-52
2020/11/18 04:46:45;;;;;;;3.19;2.89;;;;;;;19.43;56.65;101524.81;;;;-51
2020/11/18 04:49:45;;;;;;;3.39;3.01;;;;;;;19.43;56.62;101524.73;;;;-52
2020/11/18 04:52:45;;;;;;;3.33;3.00;;;;;;;19.42;56.59;101523.23;;;;-51
2020/11/18 04:55:45;;;;;;;3.19;2.89;;;;;;;19.41;56.57;101519.80;;;;-52
2020/11/18 04:58:45;;;;;;;3.02;2.72;;;;;;;19.40;56.70;101518.95;;;;-54
2020/11/18 05:01:45;;;;;;;3.16;2.86;;;;;;;19.39;56.72;101520.56;;;;-55
2020/11/18 05:04:45;;;;;;;3.23;2.93;;;;;;;19.39;56.67;101513.58;;;;-55
2020/11/18 05:07:45;;;;;;;3.14;2.84;;;;;;;19.39;56.68;101514.96;;;;-55
2020/11/18 05:10:45;;;;;;;4.03;2.74;;;;;;;19.38;56.74;101513.70;;;;-51
2020/11/18 05:13:45;;;;;;;2.87;2.59;;;;;;;19.37;56.70;101512.48;;;;-51
2020/11/18 05:16:45;;;;;;;2.93;2.63;;;;;;;19.37;56.78;101511.26;;;;-55
2020/11/18 05:19:45;;;;;;;3.01;2.71;;;;;;;19.37;56.73;101511.75;;;;-52
2020/11/18 05:22:45;;;;;;;3.30;3.00;;;;;;;19.36;56.69;101513.03;;;;-52
2020/11/18 05:25:45;;;;;;;8.51;3.22;;;;;;;19.37;56.67;101516.45;;;;-51
2020/11/18 05:28:45;;;;;;;4.82;2.67;;;;;;;19.37;56.53;101519.13;;;;-51
2020/11/18 05:31:45;;;;;;;4.93;2.94;;;;;;;19.36;56.55;101517.47;;;;-50
2020/11/18 05:34:45;;;;;;;3.69;2.85;;;;;;;19.35;56.69;101521.45;;;;-46
2020/11/18 05:37:45;;;;;;;4.67;2.67;;;;;;;19.35;56.61;101522.18;;;;-50
2020/11/18 05:40:45;;;;;;;3.45;2.70;;;;;;;19.34;56.65;101521.41;;;;-50
2020/11/18 05:43:45;;;;;;;3.57;2.83;;;;;;;19.34;56.65;101519.78;;;;-50
2020/11/18 05:46:45;;;;;;;4.80;2.68;;;;;;;19.33;56.65;101521.48;;;;-50
2020/11/18 05:49:45;;;;;;;3.11;2.72;;;;;;;19.32;56.54;101517.98;;;;-50
2020/11/18 05:52:45;;;;;;;3.70;2.73;;;;;;;19.33;56.64;101514.49;;;;-50
2020/11/18 05:55:45;;;;;;;3.07;2.76;;;;;;;19.32;56.52;101506.48;;;;-50
2020/11/18 05:58:45;;;;;;;3.04;2.74;;;;;;;19.30;56.60;101506.02;;;;-50
2020/11/18 06:01:45;;;;;;;2.97;2.57;;;;;;;19.29;56.57;101507.08;;;;-50
2020/11/18 06:04:45;;;;;;;3.19;2.77;;;;;;;19.29;56.59;101515.05;;;;-49
2020/11/18 06:07:45;;;;;;;2.75;2.55;;;;;;;19.29;56.58;101519.03;;;;-54
2020/11/18 06:10:47;;;;;;;3.53;2.71;;;;;;;19.28;56.62;101520.07;;;;-49
2020/11/18 06:13:45;;;;;;;3.34;2.58;;;;;;;19.28;56.52;101522.35;;;;-49
2020/11/18 06:16:47;;;;;;;2.89;2.60;;;;;;;19.28;56.61;101518.33;;;;-53
2020/11/18 06:19:45;;;;;;;3.87;2.61;;;;;;;19.27;56.61;101516.94;;;;-46
2020/11/18 06:22:45;;;;;;;3.43;2.70;;;;;;;19.28;56.63;101519.62;;;;-47
2020/11/18 06:25:45;;;;;;;2.62;2.39;;;;;;;19.28;56.60;101515.20;;;;-53
2020/11/18 06:28:45;;;;;;;2.91;2.61;;;;;;;19.29;56.68;101513.33;;;;-50
2020/11/18 06:31:45;;;;;;;2.90;2.58;;;;;;;19.28;56.66;101510.16;;;;-49
2020/11/18 06:34:45;;;;;;;3.63;2.69;;;;;;;19.29;56.60;101515.13;;;;-49
2020/11/18 06:37:45;;;;;;;2.81;2.54;;;;;;;19.29;56.66;101516.52;;;;-48
2020/11/18 06:40:45;;;;;;;3.12;2.49;;;;;;;19.30;56.63;101514.48;;;;-48
2020/11/18 06:43:45;;;;;;;3.26;2.55;;;;;;;19.31;56.59;101516.31;;;;-48
2020/11/18 06:46:45;;;;;;;2.75;2.52;;;;;;;19.31;56.63;101510.78;;;;-51
2020/11/18 06:49:45;;;;;;;2.69;2.49;;;;;;;19.33;56.57;101511.73;;;;-48
2020/11/18 06:52:45;;;;;;;3.29;2.61;;;;;;;19.33;56.65;101510.18;;;;-48
2020/11/18 06:55:45;;;;;;;2.59;2.39;;;;;;;19.33;56.66;101507.91;;;;-48
2020/11/18 06:58:45;;;;;;;2.83;2.29;;;;;;;19.34;56.59;101510.59;;;;-50
2020/11/18 07:01:45;;;;;;;2.63;2.41;;;;;;;19.35;56.58;101514.38;;;;-50
2020/11/18 07:04:45;;;;;;;2.30;2.10;;;;;;;19.35;56.56;101511.28;;;;-50
2020/11/18 07:07:45;;;;;;;2.70;2.47;;;;;;;19.35;56.65;101511.86;;;;-50
2020/11/18 07:10:45;;;;;;;3.01;2.67;;;;;;;19.36;56.63;101509.02;;;;-49
2020/11/18 07:13:45;;;;;;;2.69;2.49;;;;;;;19.35;56.67;101505.68;;;;-50
2020/11/18 07:16:45;;;;;;;2.56;2.36;;;;;;;19.36;56.54;101510.80;;;;-50
2020/11/18 07:19:45;;;;;;;2.75;2.42;;;;;;;19.35;56.57;101512.51;;;;-50
2020/11/18 07:22:45;;;;;;;2.47;2.20;;;;;;;19.36;56.68;101508.04;;;;-50
2020/11/18 07:25:45;;;;;;;4.50;2.91;;;;;;;19.30;55.28;101504.73;;;;-50
2020/11/18 07:28:45;;;;;;;4.85;3.30;;;;;;;19.23;55.03;101504.33;;;;-51
2020/11/18 07:31:45;;;;;;;4.15;3.14;;;;;;;19.20;54.92;101508.25;;;;-50
2020/11/18 07:34:45;;;;;;;8.54;3.33;;;;;;;19.23;55.10;101510.59;;;;-47
2020/11/18 07:37:45;;;;;;;7.87;2.97;;;;;;;19.24;55.36;101515.67;;;;-46
2020/11/18 07:40:45;;;;;;;4.74;2.95;;;;;;;19.25;55.53;101514.14;;;;-50
2020/11/18 07:43:45;;;;;;;3.33;2.70;;;;;;;19.25;55.61;101509.91;;;;-53
2020/11/18 07:46:45;;;;;;;4.66;2.70;;;;;;;19.26;55.63;101505.56;;;;-46
2020/11/18 07:49:45;;;;;;;4.17;2.81;;;;;;;19.26;55.63;101506.38;;;;-47
2020/11/18 07:52:45;;;;;;;3.07;2.63;;;;;;;19.27;55.69;101508.50;;;;-47
2020/11/18 07:55:45;;;;;;;3.77;2.60;;;;;;;19.27;55.80;101511.75;;;;-49
2020/11/18 07:58:45;;;;;;;7.01;2.75;;;;;;;19.28;55.79;101517.31;;;;-50
2020/11/18 08:01:45;;;;;;;3.77;2.78;;;;;;;19.28;55.79;101517.55;;;;-50
2020/11/18 08:04:45;;;;;;;2.81;2.51;;;;;;;19.29;55.88;101513.82;;;;-50
2020/11/18 08:07:45;;;;;;;2.55;2.35;;;;;;;19.29;55.85;101517.07;;;;-50
2020/11/18 08:10:45;;;;;;;2.80;2.45;;;;;;;19.29;55.94;101520.33;;;;-50
2020/11/18 08:13:45;;;;;;;3.53;2.67;;;;;;;19.29;55.91;101521.78;;;;-50
2020/11/18 08:16:45;;;;;;;3.71;2.57;;;;;;;19.29;55.94;101518.94;;;;-49
2020/11/18 08:19:45;;;;;;;3.42;2.40;;;;;;;19.29;56.01;101517.41;;;;-49
2020/11/18 08:22:45;;;;;;;3.39;2.59;;;;;;;19.29;56.00;101521.06;;;;-50
2020/11/18 08:25:45;;;;;;;3.59;2.59;;;;;;;19.30;56.00;101519.06;;;;-48
2020/11/18 08:28:45;;;;;;;2.78;2.53;;;;;;;19.30;55.95;101513.02;;;;-48
2020/11/18 08:31:45;;;;;;;2.86;2.43;;;;;;;19.30;55.95;101517.56;;;;-48
2020/11/18 08:34:45;;;;;;;3.11;2.55;;;;;;;19.29;56.04;101519.92;;;;-54
2020/11/18 08:37:45;;;;;;;2.95;2.37;;;;;;;19.30;55.98;101521.67;;;;-51
2020/11/18 08:40:45;;;;;;;4.78;2.85;;;;;;;19.30;56.18;101517.11;;;;-53
2020/11/18 08:43:45;;;;;;;2.71;2.30;;;;;;;19.34;56.21;101524.09;;;;-49
2020/11/18 08:46:45;;;;;;;4.72;2.31;;;;;;;19.36;56.41;101524.38;;;;-57
2020/11/18 08:49:45;;;;;;;2.89;2.23;;;;;;;19.39;56.62;101529.92;;;;-57
2020/11/18 08:52:45;;;;;;;3.31;2.51;;;;;;;19.44;56.91;101526.93;;;;-55
2020/11/18 08:55:45;;;;;;;4.20;2.50;;;;;;;19.49;56.89;101528.37;;;;-49
2020/11/18 08:58:45;;;;;;;5.77;2.60;;;;;;;19.55;56.42;101527.02;;;;-56
2020/11/18 09:01:45;;;;;;;4.77;2.25;;;;;;;19.59;56.56;101527.80;;;;-53
2020/11/18 09:04:45;;;;;;;2.70;2.33;;;;;;;19.65;56.88;101521.59;;;;-57
2020/11/18 09:07:46;;;;;;;3.79;2.23;;;;;;;19.70;57.23;101521.64;;;;-57
2020/11/18 09:10:45;;;;;;;2.81;2.29;;;;;;;19.76;57.22;101518.77;;;;-57
2020/11/18 09:13:45;;;;;;;3.60;2.40;;;;;;;19.80;57.02;101520.81;;;;-51
2020/11/18 09:16:46;;;;;;;4.60;2.29;;;;;;;19.85;56.89;101520.25;;;;-49
2020/11/18 09:19:45;;;;;;;2.79;2.26;;;;;;;19.89;57.16;101519.04;;;;-46
2020/11/18 09:22:45;;;;;;;7.25;2.41;;;;;;;19.93;57.01;101515.88;;;;-57
2020/11/18 09:25:45;;;;;;;4.04;2.18;;;;;;;19.97;56.89;101519.86;;;;-51
2020/11/18 09:28:45;;;;;;;2.82;2.29;;;;;;;20.01;57.23;101519.13;;;;-55
2020/11/18 09:31:45;;;;;;;3.21;2.38;;;;;;;20.05;56.90;101519.14;;;;-55
2020/11/18 09:34:45;;;;;;;3.42;2.22;;;;;;;20.06;56.75;101514.02;;;;-54
2020/11/18 09:37:45;;;;;;;3.43;2.41;;;;;;;20.07;56.88;101506.25;;;;-52
2020/11/18 09:40:46;;;;;;;2.87;2.31;;;;;;;20.09;56.75;101501.81;;;;-52
2020/11/18 09:43:45;;;;;;;3.43;2.10;;;;;;;20.10;56.61;101499.30;;;;-52
2020/11/18 09:46:45;;;;;;;3.40;2.25;;;;;;;20.12;56.63;101498.11;;;;-52
2020/11/18 09:49:45;;;;;;;2.59;2.16;;;;;;;20.13;56.50;101497.83;;;;-56
2020/11/18 09:52:46;;;;;;;3.44;2.29;;;;;;;20.18;57.10;101495.88;;;;-51
2020/11/18 09:55:45;;;;;;;3.51;2.31;;;;;;;20.19;57.19;101492.82;;;;-51
2020/11/18 09:58:45;;;;;;;3.28;2.17;;;;;;;20.20;57.18;101488.27;;;;-51
2020/11/18 10:01:45;;;;;;;3.75;2.37;;;;;;;20.23;57.11;101482.16;;;;-54
2020/11/18 10:04:45;;;;;;;2.99;2.20;;;;;;;20.27;57.40;101476.75;;;;-53
2020/11/18 10:07:45;;;;;;;3.19;2.27;;;;;;;20.29;57.20;101472.89;;;;-50
2020/11/18 10:10:45;;;;;;;4.49;2.25;;;;;;;20.35;58.01;101474.71;;;;-53
2020/11/18 10:13:45;;;;;;;3.59;2.15;;;;;;;20.37;57.51;101468.48;;;;-57
2020/11/18 10:16:45;;;;;;;2.45;2.25;;;;;;;20.40;57.09;101464.20;;;;-58
2020/11/18 10:19:45;;;;;;;3.32;2.46;;;;;;;20.42;57.00;101458.17;;;;-57
2020/11/18 10:22:45;;;;;;;2.89;2.10;;;;;;;20.44;56.92;101452.19;;;;-60
2020/11/18 10:25:45;;;;;;;3.01;2.35;;;;;;;20.47;57.25;101449.21;;;;-57
2020/11/18 10:28:45;;;;;;;2.81;2.06;;;;;;;20.49;56.87;101451.37;;;;-52
2020/11/18 10:31:45;;;;;;;2.74;2.23;;;;;;;20.53;56.94;101452.74;;;;-58
2020/11/18 10:34:45;;;;;;;3.69;2.33;;;;;;;20.56;56.87;101454.57;;;;-59
2020/11/18 10:37:45;;;;;;;3.61;2.04;;;;;;;20.59;57.01;101449.14;;;;-55
2020/11/18 10:40:45;;;;;;;7.13;2.62;;;;;;;20.57;55.44;101440.03;;;;-51
2020/11/18 10:43:45;;;;;;;5.49;2.57;;;;;;;20.61;56.03;101435.38;;;;-56
2020/11/18 10:46:45;;;;;;;3.29;2.38;;;;;;;20.61;55.90;101432.45;;;;-57
2020/11/18 10:49:45;;;;;;;4.46;2.31;;;;;;;20.62;56.02;101427.84;;;;-57
2020/11/18 10:52:45;;;;;;;5.61;2.45;;;;;;;20.63;55.68;101429.25;;;;-57
2020/11/18 10:55:45;;;;;;;4.37;2.30;;;;;;;20.64;55.87;101423.80;;;;-56
2020/11/18 10:58:45;;;;;;;5.75;2.53;;;;;;;20.65;55.95;101416.55;;;;-57
2020/11/18 11:01:45;;;;;;;3.49;2.40;;;;;;;20.65;55.79;101411.28;;;;-57
2020/11/18 11:04:45;;;;;;;4.03;2.44;;;;;;;20.66;55.91;101406.65;;;;-56
2020/11/18 11:07:45;;;;;;;3.43;2.27;;;;;;;20.67;55.76;101402.73;;;;-57
2020/11/18 11:10:45;;;;;;;2.77;2.31;;;;;;;20.66;55.70;101397.44;;;;-52
2020/11/18 11:13:45;;;;;;;3.64;2.09;;;;;;;20.67;55.74;101394.38;;;;-53
2020/11/18 11:16:45;;;;;;;2.55;2.21;;;;;;;20.68;55.81;101390.47;;;;-53
2020/11/18 11:19:45;;;;;;;2.96;2.29;;;;;;;20.68;55.71;101387.54;;;;-53
2020/11/18 11:22:46;;;;;;;2.97;2.39;;;;;;;20.69;55.59;101385.05;;;;-53
2020/11/18 11:25:45;;;;;;;3.55;2.29;;;;;;;20.70;55.63;101379.34;;;;-52
2020/11/18 11:28:45;;;;;;;2.85;2.29;;;;;;;20.70;55.63;101375.43;;;;-53
2020/11/18 11:31:45;;;;;;;3.15;2.47;;;;;;;20.70;55.56;101368.10;;;;-52
2020/11/18 11:34:45;;;;;;;3.87;2.39;;;;;;;20.71;55.38;101367.97;;;;-53
2020/11/18 11:37:45;;;;;;;3.50;2.23;;;;;;;20.71;55.46;101367.45;;;;-53
2020/11/18 11:40:45;;;;;;;4.38;2.52;;;;;;;20.71;55.36;101366.67;;;;-53
2020/11/18 11:43:45;;;;;;;3.03;2.63;;;;;;;20.72;55.47;101363.41;;;;-53
2020/11/18 11:46:45;;;;;;;2.41;2.18;;;;;;;20.73;55.41;101353.72;;;;-53
2020/11/18 11:49:45;;;;;;;3.19;2.41;;;;;;;20.74;55.33;101346.17;;;;-53
2020/11/18 11:52:49;;;;;;;2.96;2.35;;;;;;;20.74;55.36;101341.94;;;;-53
2020/11/18 11:55:45;;;;;;;2.67;2.15;;;;;;;20.75;55.35;101341.23;;;;-52
2020/11/18 11:58:46;;;;;;;2.45;2.23;;;;;;;20.75;55.32;101339.69;;;;-53
2020/11/18 12:01:45;;;;;;;2.35;2.13;;;;;;;20.76;55.25;101331.55;;;;-53
2020/11/18 12:04:45;;;;;;;2.78;2.24;;;;;;;20.78;55.22;101325.63;;;;-53
2020/11/18 12:07:45;;;;;;;2.93;2.29;;;;;;;20.79;55.42;101317.80;;;;-54
2020/11/18 12:10:45;;;;;;;2.46;2.26;;;;;;;20.81;55.48;101320.44;;;;-53
2020/11/18 12:13:45;;;;;;;2.30;2.10;;;;;;;20.82;55.41;101315.34;;;;-52
2020/11/18 12:16:45;;;;;;;2.39;2.13;;;;;;;20.83;55.33;101312.73;;;;-51
2020/11/18 12:19:45;;;;;;;2.51;2.21;;;;;;;20.83;55.39;101310.05;;;;-51
2020/11/18 12:22:45;;;;;;;2.30;2.10;;;;;;;20.83;55.29;101308.98;;;;-55
2020/11/18 12:25:45;;;;;;;2.58;2.07;;;;;;;20.84;55.51;101296.88;;;;-55
2020/11/18 12:28:45;;;;;;;2.68;2.30;;;;;;;20.84;55.44;101294.67;;;;-53
2020/11/18 12:31:46;;;;;;;2.66;2.13;;;;;;;20.84;55.41;101291.98;;;;-53
2020/11/18 12:34:45;;;;;;;2.59;2.19;;;;;;;20.85;55.50;101285.71;;;;-53
2020/11/18 12:37:45;;;;;;;2.89;2.19;;;;;;;20.85;55.38;101284.41;;;;-53
2020/11/18 12:40:45;;;;;;;2.53;2.17;;;;;;;20.85;55.39;101279.27;;;;-52
2020/11/18 12:43:45;;;;;;;2.61;2.05;;;;;;;20.84;55.37;101277.56;;;;-47
2020/11/18 12:46:45;;;;;;;3.06;2.09;;;;;;;20.87;55.98;101275.72;;;;-51
2020/11/18 12:49:45;;;;;;;5.41;2.35;;;;;;;20.89;56.40;101266.21;;;;-46
2020/11/18 12:52:45;;;;;;;2.91;2.17;;;;;;;20.90;56.28;101262.09;;;;-47
2020/11/18 12:55:45;;;;;;;3.97;2.21;;;;;;;20.90;56.25;101261.84;;;;-49
2020/11/18 12:58:45;;;;;;;2.75;2.13;;;;;;;20.91;56.33;101258.58;;;;-48
2020/11/18 13:01:45;;;;;;;3.02;2.07;;;;;;;20.93;56.23;101252.50;;;;-58
2020/11/18 13:04:45;;;;;;;2.54;2.10;;;;;;;20.96;56.53;101245.95;;;;-54
2020/11/18 13:07:45;;;;;;;2.57;2.11;;;;;;;20.98;56.40;101244.84;;;;-55
2020/11/18 13:10:45;;;;;;;3.83;2.17;;;;;;;20.99;56.34;101242.06;;;;-56
2020/11/18 13:13:45;;;;;;;2.98;2.07;;;;;;;21.02;56.35;101232.96;;;;-53
2020/11/18 13:16:45;;;;;;;2.29;2.07;;;;;;;21.04;56.40;101225.81;;;;-57
2020/11/18 13:19:45;;;;;;;2.61;2.09;;;;;;;21.06;56.23;101222.69;;;;-57
2020/11/18 13:22:45;;;;;;;3.91;2.10;;;;;;;21.09;56.33;101226.63;;;;-57
2020/11/18 13:25:45;;;;;;;2.71;1.95;;;;;;;21.11;56.45;101221.44;;;;-60
2020/11/18 13:28:45;;;;;;;2.35;2.10;;;;;;;21.12;56.17;101216.54;;;;-58
2020/11/18 13:31:45;;;;;;;2.61;2.08;;;;;;;21.14;56.28;101211.27;;;;-60
2020/11/18 13:34:46;;;;;;;3.01;2.23;;;;;;;21.15;56.20;101210.56;;;;-60
2020/11/18 13:37:45;;;;;;;3.41;2.29;;;;;;;21.16;56.42;101209.74;;;;-61
2020/11/18 13:40:45;;;;;;;2.65;2.09;;;;;;;21.18;56.20;101206.50;;;;-54
2020/11/18 13:43:45;;;;;;;3.67;2.11;;;;;;;21.19;56.44;101205.39;;;;-56
2020/11/18 13:46:45;;;;;;;2.32;2.00;;;;;;;21.20;56.57;101202.20;;;;-58
2020/11/18 13:49:45;;;;;;;2.19;1.85;;;;;;;21.21;56.27;101201.09;;;;-59
2020/11/18 13:52:45;;;;;;;2.21;1.99;;;;;;;21.23;56.44;101194.76;;;;-56
2020/11/18 13:55:45;;;;;;;2.95;2.01;;;;;;;21.24;56.55;101192.47;;;;-49
2020/11/18 13:58:45;;;;;;;2.25;2.01;;;;;;;21.26;56.63;101195.34;;;;-60
2020/11/18 14:01:45;;;;;;;2.46;1.99;;;;;;;21.26;56.58;101193.55;;;;-59
2020/11/18 14:04:45;;;;;;;2.12;1.90;;;;;;;21.28;56.55;101189.01;;;;-55
2020/11/18 14:07:45;;;;;;;2.21;1.81;;;;;;;21.28;56.33;101181.34;;;;-49
2020/11/18 14:10:45;;;;;;;3.25;2.07;;;;;;;21.29;56.25;101182.34;;;;-52
2020/11/18 14:13:45;;;;;;;2.63;2.07;;;;;;;21.32;56.36;101182.86;;;;-48
2020/11/18 14:16:47;;;;;;;4.23;2.25;;;;;;;21.32;55.98;101185.05;;;;-52
2020/11/18 14:19:53;;;;;;;2.05;1.85;;;;;;;21.33;55.95;101190.11;;;;-52
2020/11/18 14:22:52;;;;;;;3.18;1.91;;;;;;;21.31;55.81;101184.73;;;;-51
2020/11/18 14:26:05;;;;;;;2.40;1.93;;;;;;;21.31;55.69;101183.11;;;;-51
2020/11/18 14:41:45;;;;;;;2.47;2.02;;;;;;;21.33;55.64;101188.23;;;;-50
2020/11/18 14:44:45;;;;;;;2.33;1.92;;;;;;;21.33;55.68;101187.53;;;;-54
2020/11/18 14:47:45;;;;;;;2.16;1.93;;;;;;;21.33;55.59;101180.57;;;;-55
2020/11/18 14:50:45;;;;;;;2.35;1.90;;;;;;;21.34;55.79;101175.78;;;;-59
2020/11/18 14:53:45;;;;;;;5.46;2.03;;;;;;;21.34;55.67;101171.55;;;;-60
2020/11/18 14:56:45;;;;;;;3.67;2.13;;;;;;;21.35;55.76;101170.48;;;;-58
2020/11/18 14:59:45;;;;;;;1.98;1.81;;;;;;;21.37;55.87;101167.73;;;;-59
2020/11/18 15:02:45;;;;;;;3.09;1.99;;;;;;;21.38;55.88;101167.51;;;;-59
2020/11/18 15:05:45;;;;;;;2.39;1.91;;;;;;;21.39;55.95;101160.25;;;;-61
2020/11/18 15:08:45;;;;;;;2.55;1.94;;;;;;;21.41;55.97;101161.08;;;;-62
2020/11/18 15:11:45;;;;;;;3.41;2.14;;;;;;;21.42;56.05;101151.67;;;;-55
2020/11/18 15:14:45;;;;;;;3.59;2.04;;;;;;;21.43;56.04;101149.39;;;;-58
2020/11/18 15:17:45;;;;;;;4.72;1.82;;;;;;;21.44;56.06;101151.29;;;;-60
2020/11/18 15:20:45;;;;;;;3.53;2.01;;;;;;;21.44;55.87;101152.34;;;;-63
2020/11/18 15:23:45;;;;;;;7.14;2.05;;;;;;;21.49;56.13;101143.98;;;;-55
2020/11/18 15:26:45;;;;;;;4.29;2.14;;;;;;;21.49;56.07;101147.65;;;;-57
2020/11/18 15:29:45;;;;;;;4.39;2.27;;;;;;;21.49;55.85;101150.02;;;;-59
2020/11/18 15:32:45;;;;;;;3.59;2.31;;;;;;;21.48;55.76;101147.49;;;;-60
2020/11/18 15:35:46;;;;;;;4.40;2.01;;;;;;;21.50;55.73;101147.56;;;;-63
2020/11/18 15:38:45;;;;;;;3.41;2.03;;;;;;;21.50;55.83;101143.69;;;;-55
2020/11/18 15:41:45;;;;;;;5.04;2.06;;;;;;;21.51;55.59;101145.95;;;;-56
2020/11/18 15:44:45;;;;;;;5.88;1.98;;;;;;;21.50;55.68;101144.63;;;;-54
2020/11/18 15:47:45;;;;;;;4.06;2.10;;;;;;;21.51;55.72;101140.34;;;;-53
2020/11/18 15:50:45;;;;;;;2.95;1.95;;;;;;;21.52;55.83;101133.16;;;;-51
2020/11/18 15:53:45;;;;;;;4.56;2.02;;;;;;;21.52;55.70;101136.11;;;;-53
2020/11/18 15:56:45;;;;;;;3.38;2.33;;;;;;;21.48;55.52;101135.64;;;;-58
2020/11/18 15:59:45;;;;;;;4.72;2.35;;;;;;;21.42;54.68;101134.15;;;;-57
2020/11/18 16:02:45;;;;;;;7.52;2.57;;;;;;;21.38;54.05;101125.19;;;;-60
2020/11/18 16:05:45;;;;;;;4.35;2.39;;;;;;;21.36;54.31;101127.12;;;;-51
2020/11/18 16:08:45;;;;;;;4.06;2.31;;;;;;;21.34;54.47;101127.35;;;;-51
2020/11/18 16:11:45;;;;;;;3.07;2.25;;;;;;;21.32;54.27;101122.85;;;;-54
2020/11/18 16:14:45;;;;;;;6.41;2.39;;;;;;;21.31;54.45;101119.51;;;;-57
2020/11/18 16:17:45;;;;;;;3.57;2.49;;;;;;;21.31;54.16;101117.11;;;;-58
2020/11/18 16:20:46;;;;;;;4.51;2.35;;;;;;;21.29;54.25;101114.68;;;;-53
2020/11/18 16:23:45;;;;;;;3.70;2.48;;;;;;;21.29;54.43;101113.30;;;;-57
2020/11/18 16:26:45;;;;;;;4.25;2.20;;;;;;;21.30;54.29;101104.89;;;;-52
2020/11/18 16:29:45;;;;;;;4.68;2.40;;;;;;;21.36;54.47;101100.55;;;;-57
2020/11/18 16:32:45;;;;;;;5.26;2.74;;;;;;;21.41;54.78;101094.87;;;;-57
2020/11/18 16:35:45;;;;;;;3.81;2.19;;;;;;;21.45;54.94;101088.01;;;;-57
2020/11/18 16:38:45;;;;;;;4.37;2.33;;;;;;;21.48;55.10;101091.28;;;;-55
2020/11/18 16:41:45;;;;;;;3.03;2.44;;;;;;;21.53;55.38;101089.13;;;;-54
2020/11/18 16:44:45;;;;;;;4.79;2.33;;;;;;;21.55;55.35;101085.73;;;;-54
2020/11/18 16:47:45;;;;;;;2.67;2.35;;;;;;;21.55;55.48;101085.88;;;;-57
2020/11/18 16:50:45;;;;;;;3.62;2.23;;;;;;;21.56;55.91;101089.83;;;;-53
2020/11/18 16:53:45;;;;;;;3.76;2.19;;;;;;;21.58;55.80;101084.13;;;;-54
2020/11/18 16:56:45;;;;;;;3.38;2.23;;;;;;;21.60;56.08;101081.09;;;;-52